Geneva, Illinois
Current Conditions -  °F | °C
As of 9:52 PM on Wednesday 17 Dec 2014 (Local Time) from KDPA Reporting Station
Overcast Overcast  
Wind Chill: 15°   Ceiling: 2100
Heat Index: 24°   Visibility: 10mi
Dew Point: 15°   Wind: 8mph
Humidity: 69%   Direction: 320°NW
Pressure: 30.27"   Gusts: NA
Location:  41.89°N, 88.3°W
Report Text: KDPA 180352Z 32007KT 10SM OVC021 M04/M09 A3027 RMK AO2 SLP261 T10441094
Loading
Personal Weather Stations






























Interactive Weather Map New forecast layout! Learn more

10-Day Weather Forecast

Advertisements
Track Severe Weather on mobile